sensor_id;sensor_type;location;lat;lon;timestamp;temperature;humidity
63802;DHT22;49949;43.060;25.624;2023-05-14T00:00:50;9.50;99.90
63802;DHT22;49949;43.060;25.624;2023-05-14T00:03:16;9.50;99.90
63802;DHT22;49949;43.060;25.624;2023-05-14T00:05:42;9.50;99.90
63802;DHT22;49949;43.060;25.624;2023-05-14T00:08:08;9.50;99.90
63802;DHT22;49949;43.060;25.624;2023-05-14T00:10:33;9.50;99.90
63802;DHT22;49949;43.060;25.624;2023-05-14T00:13:00;9.50;99.90
63802;DHT22;49949;43.060;25.624;2023-05-14T00:15:25;9.40;99.90
63802;DHT22;49949;43.060;25.624;2023-05-14T00:17:51;9.40;99.90
63802;DHT22;49949;43.060;25.624;2023-05-14T00:20:17;9.30;99.90
63802;DHT22;49949;43.060;25.624;2023-05-14T00:22:43;9.30;99.90
63802;DHT22;49949;43.060;25.624;2023-05-14T00:25:09;9.30;99.90
63802;DHT22;49949;43.060;25.624;2023-05-14T00:27:35;9.30;99.90
63802;DHT22;49949;43.060;25.624;2023-05-14T00:30:03;9.30;99.90
63802;DHT22;49949;43.060;25.624;2023-05-14T00:32:30;9.30;99.90
63802;DHT22;49949;43.060;25.624;2023-05-14T00:34:56;9.30;99.90
63802;DHT22;49949;43.060;25.624;2023-05-14T00:37:22;9.30;99.90
63802;DHT22;49949;43.060;25.624;2023-05-14T00:39:47;9.40;99.90
63802;DHT22;49949;43.060;25.624;2023-05-14T00:42:13;9.40;99.90
63802;DHT22;49949;43.060;25.624;2023-05-14T00:44:38;9.40;99.90
63802;DHT22;49949;43.060;25.624;2023-05-14T00:47:04;9.40;99.90
63802;DHT22;49949;43.060;25.624;2023-05-14T00:49:30;9.40;99.90
63802;DHT22;49949;43.060;25.624;2023-05-14T00:51:56;9.40;99.90
63802;DHT22;49949;43.060;25.624;2023-05-14T00:54:25;9.40;99.90
63802;DHT22;49949;43.060;25.624;2023-05-14T00:56:52;9.40;99.90
63802;DHT22;49949;43.060;25.624;2023-05-14T00:59:18;9.50;99.90
63802;DHT22;49949;43.060;25.624;2023-05-14T01:01:44;9.50;99.90
63802;DHT22;49949;43.060;25.624;2023-05-14T01:04:10;9.50;99.90
63802;DHT22;49949;43.060;25.624;2023-05-14T01:12:43;9.50;99.90
63802;DHT22;49949;43.060;25.624;2023-05-14T01:15:20;9.50;99.90
63802;DHT22;49949;43.060;25.624;2023-05-14T01:17:51;9.50;99.90
63802;DHT22;49949;43.060;25.624;2023-05-14T01:20:18;9.40;99.90
63802;DHT22;49949;43.060;25.624;2023-05-14T01:22:44;9.40;99.90
63802;DHT22;49949;43.060;25.624;2023-05-14T01:25:09;9.40;99.90
63802;DHT22;49949;43.060;25.624;2023-05-14T01:27:52;9.40;99.90
63802;DHT22;49949;43.060;25.624;2023-05-14T01:33:11;9.50;99.90
63802;DHT22;49949;43.060;25.624;2023-05-14T01:35:38;9.50;99.90
63802;DHT22;49949;43.060;25.624;2023-05-14T01:38:07;9.40;99.90
63802;DHT22;49949;43.060;25.624;2023-05-14T01:40:35;9.40;99.90
63802;DHT22;49949;43.060;25.624;2023-05-14T01:43:02;9.50;99.90
63802;DHT22;49949;43.060;25.624;2023-05-14T01:45:29;9.50;99.90
63802;DHT22;49949;43.060;25.624;2023-05-14T01:47:55;9.50;99.90
63802;DHT22;49949;43.060;25.624;2023-05-14T01:50:21;9.50;99.90
63802;DHT22;49949;43.060;25.624;2023-05-14T01:52:47;9.50;99.90
63802;DHT22;49949;43.060;25.624;2023-05-14T01:55:13;9.40;99.90
63802;DHT22;49949;43.060;25.624;2023-05-14T01:57:40;9.40;99.90
63802;DHT22;49949;43.060;25.624;2023-05-14T02:00:06;9.40;99.90
63802;DHT22;49949;43.060;25.624;2023-05-14T02:02:32;9.40;99.90
63802;DHT22;49949;43.060;25.624;2023-05-14T02:04:57;9.40;99.90
63802;DHT22;49949;43.060;25.624;2023-05-14T02:07:23;9.50;99.90
63802;DHT22;49949;43.060;25.624;2023-05-14T02:09:49;9.50;99.90
63802;DHT22;49949;43.060;25.624;2023-05-14T02:12:15;9.60;99.90
63802;DHT22;49949;43.060;25.624;2023-05-14T02:14:40;9.60;99.90
63802;DHT22;49949;43.060;25.624;2023-05-14T02:17:06;9.60;99.90
63802;DHT22;49949;43.060;25.624;2023-05-14T02:19:32;9.50;99.90
63802;DHT22;49949;43.060;25.624;2023-05-14T02:21:59;9.50;99.90
63802;DHT22;49949;43.060;25.624;2023-05-14T02:24:25;9.50;99.90
63802;DHT22;49949;43.060;25.624;2023-05-14T02:26:51;9.60;99.90
63802;DHT22;49949;43.060;25.624;2023-05-14T02:29:17;9.60;99.90
63802;DHT22;49949;43.060;25.624;2023-05-14T02:31:43;9.70;99.90
63802;DHT22;49949;43.060;25.624;2023-05-14T02:34:09;9.70;99.90
63802;DHT22;49949;43.060;25.624;2023-05-14T02:36:35;9.80;99.90
63802;DHT22;49949;43.060;25.624;2023-05-14T02:39:01;9.80;99.90
63802;DHT22;49949;43.060;25.624;2023-05-14T02:41:26;9.90;99.90
63802;DHT22;49949;43.060;25.624;2023-05-14T02:43:52;9.90;99.90
63802;DHT22;49949;43.060;25.624;2023-05-14T02:46:18;10.00;99.90
63802;DHT22;49949;43.060;25.624;2023-05-14T02:48:44;10.10;99.90
63802;DHT22;49949;43.060;25.624;2023-05-14T02:51:10;10.10;99.90
63802;DHT22;49949;43.060;25.624;2023-05-14T02:53:36;10.20;99.90
63802;DHT22;49949;43.060;25.624;2023-05-14T02:56:02;10.20;99.90
63802;DHT22;49949;43.060;25.624;2023-05-14T02:58:28;10.30;99.90
63802;DHT22;49949;43.060;25.624;2023-05-14T03:00:53;10.30;99.90
63802;DHT22;49949;43.060;25.624;2023-05-14T03:03:19;10.20;99.90
63802;DHT22;49949;43.060;25.624;2023-05-14T03:05:45;10.20;99.90
63802;DHT22;49949;43.060;25.624;2023-05-14T03:08:11;10.20;99.90
63802;DHT22;49949;43.060;25.624;2023-05-14T03:10:36;10.20;99.90
63802;DHT22;49949;43.060;25.624;2023-05-14T03:13:02;10.20;99.90
63802;DHT22;49949;43.060;25.624;2023-05-14T03:15:28;10.20;99.90
63802;DHT22;49949;43.060;25.624;2023-05-14T03:17:53;10.10;99.90
63802;DHT22;49949;43.060;25.624;2023-05-14T03:20:19;10.20;99.90
63802;DHT22;49949;43.060;25.624;2023-05-14T03:22:45;10.20;99.90
63802;DHT22;49949;43.060;25.624;2023-05-14T03:25:11;10.30;99.90
63802;DHT22;49949;43.060;25.624;2023-05-14T03:27:36;10.40;99.90
63802;DHT22;49949;43.060;25.624;2023-05-14T03:30:03;10.40;99.90
63802;DHT22;49949;43.060;25.624;2023-05-14T03:32:29;10.40;99.90
63802;DHT22;49949;43.060;25.624;2023-05-14T03:34:55;10.40;99.90
63802;DHT22;49949;43.060;25.624;2023-05-14T03:37:20;10.40;99.90
63802;DHT22;49949;43.060;25.624;2023-05-14T03:39:46;10.40;99.90
63802;DHT22;49949;43.060;25.624;2023-05-14T03:42:12;10.50;99.90
63802;DHT22;49949;43.060;25.624;2023-05-14T03:44:37;10.60;99.90
63802;DHT22;49949;43.060;25.624;2023-05-14T03:47:03;10.70;99.90
63802;DHT22;49949;43.060;25.624;2023-05-14T03:49:29;10.80;99.90
63802;DHT22;49949;43.060;25.624;2023-05-14T03:51:55;10.80;99.90
63802;DHT22;49949;43.060;25.624;2023-05-14T03:54:21;10.90;99.90
63802;DHT22;49949;43.060;25.624;2023-05-14T03:56:47;11.00;99.90
63802;DHT22;49949;43.060;25.624;2023-05-14T03:59:13;11.10;99.90
63802;DHT22;49949;43.060;25.624;2023-05-14T04:01:38;11.20;99.90
63802;DHT22;49949;43.060;25.624;2023-05-14T04:04:04;11.30;99.90
63802;DHT22;49949;43.060;25.624;2023-05-14T04:06:30;11.40;99.90
63802;DHT22;49949;43.060;25.624;2023-05-14T04:08:55;11.60;99.90
63802;DHT22;49949;43.060;25.624;2023-05-14T04:11:21;11.80;99.90
63802;DHT22;49949;43.060;25.624;2023-05-14T04:13:47;12.00;99.90
63802;DHT22;49949;43.060;25.624;2023-05-14T04:16:12;12.20;99.90
63802;DHT22;49949;43.060;25.624;2023-05-14T04:18:38;12.30;99.90
63802;DHT22;49949;43.060;25.624;2023-05-14T04:21:04;12.60;99.90
63802;DHT22;49949;43.060;25.624;2023-05-14T04:23:30;12.70;99.90
63802;DHT22;49949;43.060;25.624;2023-05-14T04:25:59;12.90;99.90
63802;DHT22;49949;43.060;25.624;2023-05-14T04:28:24;13.50;99.90
63802;DHT22;49949;43.060;25.624;2023-05-14T04:30:50;14.00;99.90
63802;DHT22;49949;43.060;25.624;2023-05-14T04:33:16;14.40;99.90
63802;DHT22;49949;43.060;25.624;2023-05-14T04:35:43;14.70;99.90
63802;DHT22;49949;43.060;25.624;2023-05-14T04:38:10;15.20;99.90
63802;DHT22;49949;43.060;25.624;2023-05-14T04:40:36;15.70;99.90
63802;DHT22;49949;43.060;25.624;2023-05-14T04:43:02;16.00;99.90
63802;DHT22;49949;43.060;25.624;2023-05-14T04:45:27;16.00;99.90
63802;DHT22;49949;43.060;25.624;2023-05-14T04:47:53;16.10;99.00
63802;DHT22;49949;43.060;25.624;2023-05-14T04:50:19;16.40;96.50
63802;DHT22;49949;43.060;25.624;2023-05-14T04:52:44;16.60;95.30
63802;DHT22;49949;43.060;25.624;2023-05-14T04:55:10;16.60;94.60
63802;DHT22;49949;43.060;25.624;2023-05-14T04:57:36;16.60;94.40
63802;DHT22;49949;43.060;25.624;2023-05-14T05:00:01;17.10;92.70
63802;DHT22;49949;43.060;25.624;2023-05-14T05:02:30;17.90;90.00
63802;DHT22;49949;43.060;25.624;2023-05-14T05:04:56;18.30;85.90
63802;DHT22;49949;43.060;25.624;2023-05-14T05:07:21;18.10;83.70
63802;DHT22;49949;43.060;25.624;2023-05-14T05:09:47;18.10;82.90
63802;DHT22;49949;43.060;25.624;2023-05-14T05:12:13;18.10;81.60
63802;DHT22;49949;43.060;25.624;2023-05-14T05:14:38;18.00;82.80
63802;DHT22;49949;43.060;25.624;2023-05-14T05:17:04;18.00;83.20
63802;DHT22;49949;43.060;25.624;2023-05-14T05:19:29;18.20;82.00
63802;DHT22;49949;43.060;25.624;2023-05-14T05:21:55;18.20;81.10
63802;DHT22;49949;43.060;25.624;2023-05-14T05:24:21;17.70;83.00
63802;DHT22;49949;43.060;25.624;2023-05-14T05:26:46;17.50;83.40
63802;DHT22;49949;43.060;25.624;2023-05-14T05:29:12;17.50;83.70
63802;DHT22;49949;43.060;25.624;2023-05-14T05:31:38;17.60;81.60
63802;DHT22;49949;43.060;25.624;2023-05-14T05:34:04;17.60;82.60
63802;DHT22;49949;43.060;25.624;2023-05-14T05:36:30;17.60;82.50
63802;DHT22;49949;43.060;25.624;2023-05-14T05:38:56;17.70;82.30
63802;DHT22;49949;43.060;25.624;2023-05-14T05:41:22;17.80;83.30
63802;DHT22;49949;43.060;25.624;2023-05-14T05:43:47;18.00;82.70
63802;DHT22;49949;43.060;25.624;2023-05-14T05:46:13;18.10;81.80
63802;DHT22;49949;43.060;25.624;2023-05-14T05:48:39;18.20;82.50
63802;DHT22;49949;43.060;25.624;2023-05-14T05:51:04;18.30;82.70
63802;DHT22;49949;43.060;25.624;2023-05-14T05:53:30;18.50;81.50
63802;DHT22;49949;43.060;25.624;2023-05-14T05:55:56;18.60;80.90
63802;DHT22;49949;43.060;25.624;2023-05-14T05:58:21;18.70;80.20
63802;DHT22;49949;43.060;25.624;2023-05-14T06:00:47;18.60;82.30
63802;DHT22;49949;43.060;25.624;2023-05-14T06:03:13;18.70;80.90
63802;DHT22;49949;43.060;25.624;2023-05-14T06:05:38;18.60;79.00
63802;DHT22;49949;43.060;25.624;2023-05-14T06:08:05;18.40;78.90
63802;DHT22;49949;43.060;25.624;2023-05-14T06:10:30;18.30;79.70
63802;DHT22;49949;43.060;25.624;2023-05-14T06:12:56;18.30;80.60
63802;DHT22;49949;43.060;25.624;2023-05-14T06:15:22;18.30;81.20
63802;DHT22;49949;43.060;25.624;2023-05-14T06:17:48;18.30;81.90
63802;DHT22;49949;43.060;25.624;2023-05-14T06:20:13;18.30;80.30
63802;DHT22;49949;43.060;25.624;2023-05-14T06:22:39;18.50;81.90
63802;DHT22;49949;43.060;25.624;2023-05-14T06:25:05;18.70;80.60
63802;DHT22;49949;43.060;25.624;2023-05-14T06:27:31;18.70;79.70
63802;DHT22;49949;43.060;25.624;2023-05-14T06:29:56;18.70;79.30
63802;DHT22;49949;43.060;25.624;2023-05-14T06:32:22;18.80;78.70
63802;DHT22;49949;43.060;25.624;2023-05-14T06:34:48;18.90;79.80
63802;DHT22;49949;43.060;25.624;2023-05-14T06:37:13;18.90;80.50
63802;DHT22;49949;43.060;25.624;2023-05-14T06:39:39;18.90;79.80
63802;DHT22;49949;43.060;25.624;2023-05-14T06:42:10;18.90;80.40
63802;DHT22;49949;43.060;25.624;2023-05-14T06:44:36;19.00;79.80
63802;DHT22;49949;43.060;25.624;2023-05-14T06:47:02;19.10;79.70
63802;DHT22;49949;43.060;25.624;2023-05-14T06:49:27;19.20;80.60
63802;DHT22;49949;43.060;25.624;2023-05-14T06:51:53;19.50;81.20
63802;DHT22;49949;43.060;25.624;2023-05-14T06:54:19;19.60;79.10
63802;DHT22;49949;43.060;25.624;2023-05-14T06:56:45;19.70;78.60
63802;DHT22;49949;43.060;25.624;2023-05-14T06:59:11;19.60;77.40
63802;DHT22;49949;43.060;25.624;2023-05-14T07:01:37;19.40;76.00
63802;DHT22;49949;43.060;25.624;2023-05-14T07:04:02;19.60;75.80
63802;DHT22;49949;43.060;25.624;2023-05-14T07:06:28;19.80;77.20
63802;DHT22;49949;43.060;25.624;2023-05-14T07:08:54;19.60;73.20
63802;DHT22;49949;43.060;25.624;2023-05-14T07:11:20;19.60;75.70
63802;DHT22;49949;43.060;25.624;2023-05-14T07:13:46;19.70;74.60
63802;DHT22;49949;43.060;25.624;2023-05-14T07:16:12;19.50;75.00
63802;DHT22;49949;43.060;25.624;2023-05-14T07:18:37;19.40;75.10
63802;DHT22;49949;43.060;25.624;2023-05-14T07:21:03;19.40;73.00
63802;DHT22;49949;43.060;25.624;2023-05-14T07:23:31;19.40;75.50
63802;DHT22;49949;43.060;25.624;2023-05-14T07:25:57;19.40;74.20
63802;DHT22;49949;43.060;25.624;2023-05-14T07:28:23;19.10;72.80
63802;DHT22;49949;43.060;25.624;2023-05-14T07:30:48;19.00;73.20
63802;DHT22;49949;43.060;25.624;2023-05-14T07:33:14;18.80;73.90
63802;DHT22;49949;43.060;25.624;2023-05-14T07:35:40;18.60;72.80
63802;DHT22;49949;43.060;25.624;2023-05-14T07:38:05;18.70;73.20
63802;DHT22;49949;43.060;25.624;2023-05-14T07:40:31;18.60;72.80
63802;DHT22;49949;43.060;25.624;2023-05-14T07:42:57;18.70;73.00
63802;DHT22;49949;43.060;25.624;2023-05-14T07:45:23;18.70;72.90
63802;DHT22;49949;43.060;25.624;2023-05-14T07:47:48;18.70;72.30
63802;DHT22;49949;43.060;25.624;2023-05-14T07:50:17;18.60;72.50
63802;DHT22;49949;43.060;25.624;2023-05-14T07:52:44;18.50;71.10
63802;DHT22;49949;43.060;25.624;2023-05-14T07:55:11;18.30;71.30
63802;DHT22;49949;43.060;25.624;2023-05-14T07:57:37;18.40;71.30
63802;DHT22;49949;43.060;25.624;2023-05-14T08:00:03;18.40;70.90
63802;DHT22;49949;43.060;25.624;2023-05-14T08:02:33;18.50;70.90
63802;DHT22;49949;43.060;25.624;2023-05-14T08:04:58;18.50;71.10
63802;DHT22;49949;43.060;25.624;2023-05-14T08:07:24;18.40;70.50
63802;DHT22;49949;43.060;25.624;2023-05-14T08:09:51;18.30;71.60
63802;DHT22;49949;43.060;25.624;2023-05-14T08:12:17;18.40;70.60
63802;DHT22;49949;43.060;25.624;2023-05-14T08:14:43;18.40;69.70
63802;DHT22;49949;43.060;25.624;2023-05-14T08:17:08;18.30;70.00
63802;DHT22;49949;43.060;25.624;2023-05-14T08:19:34;18.50;70.30
63802;DHT22;49949;43.060;25.624;2023-05-14T08:22:00;18.50;70.70
63802;DHT22;49949;43.060;25.624;2023-05-14T08:24:25;18.50;70.60
63802;DHT22;49949;43.060;25.624;2023-05-14T08:26:51;18.60;70.20
63802;DHT22;49949;43.060;25.624;2023-05-14T08:29:17;18.70;70.30
63802;DHT22;49949;43.060;25.624;2023-05-14T08:31:43;18.60;70.00
63802;DHT22;49949;43.060;25.624;2023-05-14T08:34:08;18.60;70.20
63802;DHT22;49949;43.060;25.624;2023-05-14T08:36:34;18.60;70.00
63802;DHT22;49949;43.060;25.624;2023-05-14T08:39:00;18.50;70.00
63802;DHT22;49949;43.060;25.624;2023-05-14T08:41:26;18.60;70.80
63802;DHT22;49949;43.060;25.624;2023-05-14T08:44:18;18.60;69.00
63802;DHT22;49949;43.060;25.624;2023-05-14T08:46:44;18.50;69.80
63802;DHT22;49949;43.060;25.624;2023-05-14T08:51:57;18.70;68.90
63802;DHT22;49949;43.060;25.624;2023-05-14T08:54:24;18.70;68.60
63802;DHT22;49949;43.060;25.624;2023-05-14T08:56:52;18.70;68.20
63802;DHT22;49949;43.060;25.624;2023-05-14T08:59:18;18.70;69.10
63802;DHT22;49949;43.060;25.624;2023-05-14T09:01:46;18.60;69.50
63802;DHT22;49949;43.060;25.624;2023-05-14T09:04:15;18.50;69.60
63802;DHT22;49949;43.060;25.624;2023-05-14T09:06:43;18.50;70.20
63802;DHT22;49949;43.060;25.624;2023-05-14T09:09:09;18.60;69.10
63802;DHT22;49949;43.060;25.624;2023-05-14T09:14:57;18.50;69.50
63802;DHT22;49949;43.060;25.624;2023-05-14T09:17:25;18.60;69.00
63802;DHT22;49949;43.060;25.624;2023-05-14T09:19:51;18.80;69.30
63802;DHT22;49949;43.060;25.624;2023-05-14T09:22:18;18.90;69.20
63802;DHT22;49949;43.060;25.624;2023-05-14T09:24:44;19.00;67.80
63802;DHT22;49949;43.060;25.624;2023-05-14T09:27:19;19.00;68.40
63802;DHT22;49949;43.060;25.624;2023-05-14T09:29:46;19.00;68.80
63802;DHT22;49949;43.060;25.624;2023-05-14T09:32:12;19.10;68.90
63802;DHT22;49949;43.060;25.624;2023-05-14T09:34:39;19.30;68.50
63802;DHT22;49949;43.060;25.624;2023-05-14T09:37:07;19.60;68.10
63802;DHT22;49949;43.060;25.624;2023-05-14T09:39:34;19.70;68.00
63802;DHT22;49949;43.060;25.624;2023-05-14T09:42:01;19.90;66.90
63802;DHT22;49949;43.060;25.624;2023-05-14T09:44:27;19.90;67.60
63802;DHT22;49949;43.060;25.624;2023-05-14T09:46:52;19.90;67.20
63802;DHT22;49949;43.060;25.624;2023-05-14T09:49:19;19.90;67.60
63802;DHT22;49949;43.060;25.624;2023-05-14T09:51:45;19.90;67.90
63802;DHT22;49949;43.060;25.624;2023-05-14T09:54:11;19.70;68.80
63802;DHT22;49949;43.060;25.624;2023-05-14T09:56:37;19.90;67.20
63802;DHT22;49949;43.060;25.624;2023-05-14T09:59:04;19.50;69.30
63802;DHT22;49949;43.060;25.624;2023-05-14T10:01:30;19.20;70.40
63802;DHT22;49949;43.060;25.624;2023-05-14T10:03:57;19.40;70.50
63802;DHT22;49949;43.060;25.624;2023-05-14T10:06:26;19.20;70.20
63802;DHT22;49949;43.060;25.624;2023-05-14T10:08:55;19.20;70.90
63802;DHT22;49949;43.060;25.624;2023-05-14T10:11:24;19.10;70.90
63802;DHT22;49949;43.060;25.624;2023-05-14T10:16:49;18.90;71.60
63802;DHT22;49949;43.060;25.624;2023-05-14T10:19:16;19.10;72.10
63802;DHT22;49949;43.060;25.624;2023-05-14T10:21:47;19.10;71.30
63802;DHT22;49949;43.060;25.624;2023-05-14T10:24:14;19.10;72.20
63802;DHT22;49949;43.060;25.624;2023-05-14T10:26:40;18.90;73.00
63802;DHT22;49949;43.060;25.624;2023-05-14T10:29:08;19.00;73.00
63802;DHT22;49949;43.060;25.624;2023-05-14T10:31:47;18.90;73.30
63802;DHT22;49949;43.060;25.624;2023-05-14T10:34:35;18.80;73.20
63802;DHT22;49949;43.060;25.624;2023-05-14T10:37:10;18.90;73.70
63802;DHT22;49949;43.060;25.624;2023-05-14T10:40:03;19.10;74.20
63802;DHT22;49949;43.060;25.624;2023-05-14T10:42:34;19.50;73.00
63802;DHT22;49949;43.060;25.624;2023-05-14T10:45:04;19.60;72.40
63802;DHT22;49949;43.060;25.624;2023-05-14T10:47:33;19.80;73.30
63802;DHT22;49949;43.060;25.624;2023-05-14T10:50:03;19.80;74.40
63802;DHT22;49949;43.060;25.624;2023-05-14T10:52:30;20.00;72.80
63802;DHT22;49949;43.060;25.624;2023-05-14T10:55:01;20.10;70.80
63802;DHT22;49949;43.060;25.624;2023-05-14T10:57:29;20.20;73.00
63802;DHT22;49949;43.060;25.624;2023-05-14T10:59:57;20.30;71.10
63802;DHT22;49949;43.060;25.624;2023-05-14T11:02:27;20.20;72.00
63802;DHT22;49949;43.060;25.624;2023-05-14T11:05:01;20.60;72.00
63802;DHT22;49949;43.060;25.624;2023-05-14T11:07:36;20.80;70.60
63802;DHT22;49949;43.060;25.624;2023-05-14T11:10:13;20.60;71.80
63802;DHT22;49949;43.060;25.624;2023-05-14T11:12:46;20.60;71.60
63802;DHT22;49949;43.060;25.624;2023-05-14T11:15:18;20.20;72.80
63802;DHT22;49949;43.060;25.624;2023-05-14T11:17:44;20.30;72.00
63802;DHT22;49949;43.060;25.624;2023-05-14T11:20:12;20.20;72.70
63802;DHT22;49949;43.060;25.624;2023-05-14T11:22:39;20.30;73.60
63802;DHT22;49949;43.060;25.624;2023-05-14T11:25:06;20.30;73.20
63802;DHT22;49949;43.060;25.624;2023-05-14T11:27:37;20.30;73.20
63802;DHT22;49949;43.060;25.624;2023-05-14T11:30:03;20.20;73.30
63802;DHT22;49949;43.060;25.624;2023-05-14T11:32:32;20.20;73.70
63802;DHT22;49949;43.060;25.624;2023-05-14T11:34:59;20.30;73.90
63802;DHT22;49949;43.060;25.624;2023-05-14T11:37:25;20.20;74.40
63802;DHT22;49949;43.060;25.624;2023-05-14T11:39:52;20.30;74.60
63802;DHT22;49949;43.060;25.624;2023-05-14T11:42:19;20.20;75.60
63802;DHT22;49949;43.060;25.624;2023-05-14T11:44:49;20.40;74.70
63802;DHT22;49949;43.060;25.624;2023-05-14T11:47:17;20.30;74.50
63802;DHT22;49949;43.060;25.624;2023-05-14T11:49:43;20.30;75.00
63802;DHT22;49949;43.060;25.624;2023-05-14T11:52:09;20.30;75.10
63802;DHT22;49949;43.060;25.624;2023-05-14T11:54:37;20.30;76.00
63802;DHT22;49949;43.060;25.624;2023-05-14T11:57:10;20.50;76.40
63802;DHT22;49949;43.060;25.624;2023-05-14T11:59:37;20.70;74.40
63802;DHT22;49949;43.060;25.624;2023-05-14T12:02:03;20.60;75.40
63802;DHT22;49949;43.060;25.624;2023-05-14T12:04:30;20.60;75.60
63802;DHT22;49949;43.060;25.624;2023-05-14T12:06:58;20.70;75.30
63802;DHT22;49949;43.060;25.624;2023-05-14T12:09:24;20.70;75.00
63802;DHT22;49949;43.060;25.624;2023-05-14T12:11:51;20.50;75.80
63802;DHT22;49949;43.060;25.624;2023-05-14T12:14:22;20.30;77.00
63802;DHT22;49949;43.060;25.624;2023-05-14T12:16:49;20.50;76.80
63802;DHT22;49949;43.060;25.624;2023-05-14T12:19:17;20.40;76.50
63802;DHT22;49949;43.060;25.624;2023-05-14T12:21:45;20.30;76.50
63802;DHT22;49949;43.060;25.624;2023-05-14T12:24:20;20.10;77.10
63802;DHT22;49949;43.060;25.624;2023-05-14T12:26:47;20.20;78.30
63802;DHT22;49949;43.060;25.624;2023-05-14T12:29:15;20.50;76.80
63802;DHT22;49949;43.060;25.624;2023-05-14T12:31:45;20.10;77.70
63802;DHT22;49949;43.060;25.624;2023-05-14T12:34:12;20.30;77.60
63802;DHT22;49949;43.060;25.624;2023-05-14T12:36:37;20.30;77.40
63802;DHT22;49949;43.060;25.624;2023-05-14T12:39:03;20.30;77.10
63802;DHT22;49949;43.060;25.624;2023-05-14T12:41:30;20.40;77.80
63802;DHT22;49949;43.060;25.624;2023-05-14T12:43:56;20.40;77.20
63802;DHT22;49949;43.060;25.624;2023-05-14T12:46:23;20.20;78.50
63802;DHT22;49949;43.060;25.624;2023-05-14T12:48:49;20.30;78.70
63802;DHT22;49949;43.060;25.624;2023-05-14T12:51:16;20.40;77.40
63802;DHT22;49949;43.060;25.624;2023-05-14T12:53:42;20.40;77.20
63802;DHT22;49949;43.060;25.624;2023-05-14T12:56:07;20.20;77.90
63802;DHT22;49949;43.060;25.624;2023-05-14T12:58:33;20.10;77.60
63802;DHT22;49949;43.060;25.624;2023-05-14T13:00:59;20.20;78.10
63802;DHT22;49949;43.060;25.624;2023-05-14T13:03:25;20.10;78.10
63802;DHT22;49949;43.060;25.624;2023-05-14T13:05:51;20.00;78.30
63802;DHT22;49949;43.060;25.624;2023-05-14T13:08:17;19.70;78.80
63802;DHT22;49949;43.060;25.624;2023-05-14T13:10:48;19.60;78.80
63802;DHT22;49949;43.060;25.624;2023-05-14T13:13:14;19.60;79.60
63802;DHT22;49949;43.060;25.624;2023-05-14T13:15:40;19.70;78.10
63802;DHT22;49949;43.060;25.624;2023-05-14T13:18:05;19.80;79.00
63802;DHT22;49949;43.060;25.624;2023-05-14T13:20:32;19.80;78.50
63802;DHT22;49949;43.060;25.624;2023-05-14T13:22:58;19.70;78.30
63802;DHT22;49949;43.060;25.624;2023-05-14T13:25:24;19.60;78.90
63802;DHT22;49949;43.060;25.624;2023-05-14T13:27:50;19.40;79.50
63802;DHT22;49949;43.060;25.624;2023-05-14T13:30:19;19.40;80.40
63802;DHT22;49949;43.060;25.624;2023-05-14T13:32:45;19.40;79.50
63802;DHT22;49949;43.060;25.624;2023-05-14T13:35:11;19.50;79.40
63802;DHT22;49949;43.060;25.624;2023-05-14T13:37:37;19.50;79.60
63802;DHT22;49949;43.060;25.624;2023-05-14T13:40:03;19.60;79.20
63802;DHT22;49949;43.060;25.624;2023-05-14T13:42:31;19.60;79.80
63802;DHT22;49949;43.060;25.624;2023-05-14T13:44:58;19.50;80.00
63802;DHT22;49949;43.060;25.624;2023-05-14T13:47:24;19.60;80.00
63802;DHT22;49949;43.060;25.624;2023-05-14T13:49:54;19.40;79.70
63802;DHT22;49949;43.060;25.624;2023-05-14T13:52:21;19.30;80.50
63802;DHT22;49949;43.060;25.624;2023-05-14T13:54:47;19.10;81.10
63802;DHT22;49949;43.060;25.624;2023-05-14T13:57:13;19.20;81.10
63802;DHT22;49949;43.060;25.624;2023-05-14T13:59:40;19.30;80.90
63802;DHT22;49949;43.060;25.624;2023-05-14T14:02:06;19.30;81.80
63802;DHT22;49949;43.060;25.624;2023-05-14T14:04:32;19.10;81.20
63802;DHT22;49949;43.060;25.624;2023-05-14T14:06:57;19.10;81.90
63802;DHT22;49949;43.060;25.624;2023-05-14T14:09:23;19.10;81.90
63802;DHT22;49949;43.060;25.624;2023-05-14T14:11:50;19.10;81.80
63802;DHT22;49949;43.060;25.624;2023-05-14T14:14:16;19.00;82.70
63802;DHT22;49949;43.060;25.624;2023-05-14T14:16:42;18.90;83.00
63802;DHT22;49949;43.060;25.624;2023-05-14T14:19:08;18.80;82.70
63802;DHT22;49949;43.060;25.624;2023-05-14T14:21:34;18.70;83.70
63802;DHT22;49949;43.060;25.624;2023-05-14T14:24:00;18.70;84.40
63802;DHT22;49949;43.060;25.624;2023-05-14T14:26:26;18.80;83.90
63802;DHT22;49949;43.060;25.624;2023-05-14T14:28:53;18.70;84.20
63802;DHT22;49949;43.060;25.624;2023-05-14T14:31:20;18.60;84.50
63802;DHT22;49949;43.060;25.624;2023-05-14T14:33:46;18.60;84.60
63802;DHT22;49949;43.060;25.624;2023-05-14T14:36:12;18.40;85.10
63802;DHT22;49949;43.060;25.624;2023-05-14T14:38:37;18.30;85.30
63802;DHT22;49949;43.060;25.624;2023-05-14T14:41:04;18.30;86.00
63802;DHT22;49949;43.060;25.624;2023-05-14T14:43:33;18.10;86.30
63802;DHT22;49949;43.060;25.624;2023-05-14T14:45:58;18.10;87.10
63802;DHT22;49949;43.060;25.624;2023-05-14T14:48:34;18.00;86.80
63802;DHT22;49949;43.060;25.624;2023-05-14T14:51:03;17.90;86.80
63802;DHT22;49949;43.060;25.624;2023-05-14T14:53:30;17.90;87.30
63802;DHT22;49949;43.060;25.624;2023-05-14T14:55:56;18.00;86.80
63802;DHT22;49949;43.060;25.624;2023-05-14T14:58:23;18.00;87.40
63802;DHT22;49949;43.060;25.624;2023-05-14T15:00:52;17.90;87.00
63802;DHT22;49949;43.060;25.624;2023-05-14T15:03:18;17.80;87.40
63802;DHT22;49949;43.060;25.624;2023-05-14T15:05:44;17.80;87.80
63802;DHT22;49949;43.060;25.624;2023-05-14T15:08:10;17.70;88.00
63802;DHT22;49949;43.060;25.624;2023-05-14T15:10:36;17.70;87.70
63802;DHT22;49949;43.060;25.624;2023-05-14T15:13:03;17.70;87.70
63802;DHT22;49949;43.060;25.624;2023-05-14T15:15:29;17.70;88.10
63802;DHT22;49949;43.060;25.624;2023-05-14T15:17:56;17.70;88.20
63802;DHT22;49949;43.060;25.624;2023-05-14T15:20:22;17.60;88.20
63802;DHT22;49949;43.060;25.624;2023-05-14T15:22:47;17.60;88.70
63802;DHT22;49949;43.060;25.624;2023-05-14T15:25:20;17.50;88.40
63802;DHT22;49949;43.060;25.624;2023-05-14T15:27:45;17.50;88.50
63802;DHT22;49949;43.060;25.624;2023-05-14T15:30:12;17.40;88.40
63802;DHT22;49949;43.060;25.624;2023-05-14T15:32:38;17.40;88.60